Time;durP1;ratioP1;P1;durP2;ratioP2;P2;SDS_P1;SDS_P2;PMS_P1;PMS_P2;Temp;Humidity;BMP_temperature;BMP_pressure;BME280_temperature;BME280_humidity;BME280_pressure;Samples;Min_cycle;Max_cycle;Signal;HPM_P1;HPM_P2
2022/10/05 00:01:52;;;;;;;;;;;17.70;99.90;;;;;;5081698;28;20419;-67
2022/10/05 00:04:20;;;;;;;;;;;17.70;99.90;;;;;;5082347;28;19946;-67
2022/10/05 00:06:56;;;;;;;;;;;17.60;99.90;;;;;;5073321;28;20346;-65
2022/10/05 00:09:22;;;;;;;;;;;17.60;99.90;;;;;;5082936;28;20663;-66
2022/10/05 00:11:48;;;;;;;;;;;17.60;99.90;;;;;;5087317;28;19908;-66
2022/10/05 00:14:34;;;;;;;;;;;17.60;99.90;;;;;;5067575;28;19912;-65
2022/10/05 00:17:00;;;;;;;;;;;17.60;99.90;;;;;;5082301;28;20417;-66
2022/10/05 00:19:36;;;;;;;;;;;17.60;99.90;;;;;;5074496;28;19924;-66
2022/10/05 00:22:07;;;;;;;;;;;17.60;99.90;;;;;;5067981;28;19912;-66
2022/10/05 00:24:33;;;;;;;;;;;17.60;99.90;;;;;;5078224;28;19924;-67
2022/10/05 00:26:59;;;;;;;;;;;17.60;99.90;;;;;;5081454;28;19965;-66
2022/10/05 00:29:25;;;;;;;;;;;17.50;99.90;;;;;;5076801;28;20019;-66
2022/10/05 00:31:50;;;;;;;;;;;17.60;99.90;;;;;;5084888;28;19998;-67
2022/10/05 00:34:16;;;;;;;;;;;17.70;99.90;;;;;;5075944;28;19920;-67
2022/10/05 00:36:42;;;;;;;;;;;17.70;99.90;;;;;;5077535;28;19947;-66
2022/10/05 00:39:07;;;;;;;;;;;17.70;99.90;;;;;;5072640;28;19920;-66
2022/10/05 00:41:39;;;;;;;;;;;17.70;99.90;;;;;;5081592;28;19916;-67
2022/10/05 00:44:22;;;;;;;;;;;17.60;99.90;;;;;;5078568;28;19944;-66
2022/10/05 00:47:06;;;;;;;;;;;17.70;99.90;;;;;;5073791;28;19921;-66
2022/10/05 00:49:42;;;;;;;;;;;17.70;99.90;;;;;;5083019;28;20012;-66
2022/10/05 00:52:08;;;;;;;;;;;17.60;99.90;;;;;;5076436;28;19919;-66
2022/10/05 00:54:45;;;;;;;;;;;17.60;99.90;;;;;;5074040;28;20018;-65
2022/10/05 00:57:38;;;;;;;;;;;17.60;99.90;;;;;;5080755;28;20058;-66
2022/10/05 01:00:06;;;;;;;;;;;17.60;99.90;;;;;;5082012;28;19923;-66
2022/10/05 01:02:39;;;;;;;;;;;17.60;99.90;;;;;;5070513;28;19962;-66
2022/10/05 01:05:09;;;;;;;;;;;17.60;99.90;;;;;;5076695;28;19952;-67
2022/10/05 01:07:38;;;;;;;;;;;17.60;99.90;;;;;;5088777;28;19912;-65
2022/10/05 01:10:03;;;;;;;;;;;17.60;99.90;;;;;;5076852;28;19919;-66
2022/10/05 01:12:34;;;;;;;;;;;17.70;99.90;;;;;;5071681;28;19912;-67
2022/10/05 01:15:06;;;;;;;;;;;17.70;99.90;;;;;;5078153;28;20377;-67
2022/10/05 01:17:36;;;;;;;;;;;17.70;99.90;;;;;;5080502;28;19912;-67
2022/10/05 01:20:02;;;;;;;;;;;17.70;99.90;;;;;;5077852;28;19974;-65
2022/10/05 01:22:49;;;;;;;;;;;17.60;99.90;;;;;;5076034;28;20361;-66
2022/10/05 01:25:29;;;;;;;;;;;17.60;99.90;;;;;;5079328;28;19920;-66
2022/10/05 01:28:02;;;;;;;;;;;17.50;99.90;;;;;;5073663;28;20374;-66
2022/10/05 01:30:30;;;;;;;;;;;17.60;99.90;;;;;;5071971;28;19962;-67
2022/10/05 01:32:55;;;;;;;;;;;17.60;99.90;;;;;;5074934;28;19916;-65
2022/10/05 01:35:24;;;;;;;;;;;17.50;99.90;;;;;;5071220;28;19935;-66
2022/10/05 01:37:52;;;;;;;;;;;17.50;99.90;;;;;;5077397;28;20338;-66
2022/10/05 01:40:27;;;;;;;;;;;17.40;99.90;;;;;;5069536;28;19917;-66
2022/10/05 01:43:10;;;;;;;;;;;17.50;99.90;;;;;;5074171;28;20290;-65
2022/10/05 01:45:38;;;;;;;;;;;17.50;99.90;;;;;;5070597;28;19920;-66
2022/10/05 01:48:22;;;;;;;;;;;17.40;99.90;;;;;;5069910;28;19920;-66
2022/10/05 01:50:59;;;;;;;;;;;17.40;99.90;;;;;;5073508;28;19995;-66
2022/10/05 01:53:30;;;;;;;;;;;17.50;99.90;;;;;;5066216;28;19920;-66
2022/10/05 01:56:25;;;;;;;;;;;17.50;99.90;;;;;;5070522;28;19912;-66
2022/10/05 01:58:59;;;;;;;;;;;17.50;99.90;;;;;;5068463;28;20349;-66
2022/10/05 02:01:25;;;;;;;;;;;17.50;99.90;;;;;;5071226;28;19912;-66
2022/10/05 02:04:03;;;;;;;;;;;17.50;99.90;;;;;;5081510;28;19978;-66
2022/10/05 02:06:34;;;;;;;;;;;17.50;99.90;;;;;;5074489;28;20012;-66
2022/10/05 02:09:11;;;;;;;;;;;17.50;99.90;;;;;;5066768;28;19916;-66
2022/10/05 02:11:38;;;;;;;;;;;17.50;99.90;;;;;;5067595;28;19938;-65
2022/10/05 02:14:11;;;;;;;;;;;17.50;99.90;;;;;;5070801;28;20384;-66
2022/10/05 02:16:44;;;;;;;;;;;17.50;99.90;;;;;;5067047;28;19921;-66
2022/10/05 02:19:19;;;;;;;;;;;17.50;99.90;;;;;;5073327;28;20030;-66
2022/10/05 02:21:47;;;;;;;;;;;17.50;99.90;;;;;;5069855;28;19916;-66
2022/10/05 02:24:17;;;;;;;;;;;17.50;99.90;;;;;;5069028;28;20229;-66
2022/10/05 02:26:44;;;;;;;;;;;17.40;99.90;;;;;;5082795;28;19959;-66
2022/10/05 02:29:12;;;;;;;;;;;17.50;99.90;;;;;;5081147;28;19980;-65
2022/10/05 02:31:46;;;;;;;;;;;17.40;99.90;;;;;;5074597;28;20012;-65
2022/10/05 02:34:19;;;;;;;;;;;17.50;99.90;;;;;;5081756;28;20278;-66
2022/10/05 02:36:45;;;;;;;;;;;17.50;99.90;;;;;;5074449;28;20365;-66
2022/10/05 02:39:20;;;;;;;;;;;17.50;99.90;;;;;;5079090;28;19934;-66
2022/10/05 02:41:48;;;;;;;;;;;17.50;99.90;;;;;;5073066;28;19920;-67
2022/10/05 02:44:38;;;;;;;;;;;17.40;99.90;;;;;;5072118;28;20302;-66
2022/10/05 02:47:22;;;;;;;;;;;17.40;99.90;;;;;;5073561;28;20165;-66
2022/10/05 02:49:52;;;;;;;;;;;17.40;99.90;;;;;;5074850;28;19912;-66
2022/10/05 02:52:18;;;;;;;;;;;17.40;99.90;;;;;;5080774;28;19916;-66
2022/10/05 02:55:02;;;;;;;;;;;17.30;99.90;;;;;;5073376;28;19935;-66
2022/10/05 02:57:34;;;;;;;;;;;17.40;99.90;;;;;;5072557;28;19948;-66
2022/10/05 03:00:14;;;;;;;;;;;17.50;99.90;;;;;;5077409;28;19916;-67
2022/10/05 03:02:43;;;;;;;;;;;17.40;99.90;;;;;;5074517;28;20091;-66
2022/10/05 03:05:14;;;;;;;;;;;17.50;99.90;;;;;;5080033;28;19920;-67
2022/10/05 03:07:56;;;;;;;;;;;17.40;99.90;;;;;;5082092;28;20315;-67
2022/10/05 03:10:52;;;;;;;;;;;17.40;99.90;;;;;;5075806;28;19912;-66
2022/10/05 03:13:23;;;;;;;;;;;17.30;99.90;;;;;;5081623;28;19920;-66
2022/10/05 03:16:05;;;;;;;;;;;17.40;99.90;;;;;;5076308;28;20066;-66
2022/10/05 03:18:47;;;;;;;;;;;17.50;99.90;;;;;;5084802;28;20053;-66
2022/10/05 03:21:27;;;;;;;;;;;17.40;99.90;;;;;;5080354;28;19920;-66
2022/10/05 03:24:11;;;;;;;;;;;17.40;99.90;;;;;;5075383;28;19927;-68
2022/10/05 03:26:56;;;;;;;;;;;17.40;99.90;;;;;;5072770;28;19920;-66
2022/10/05 03:29:34;;;;;;;;;;;17.40;99.90;;;;;;5075895;28;20331;-67
2022/10/05 03:32:20;;;;;;;;;;;17.40;99.90;;;;;;5077114;28;20396;-66
2022/10/05 03:35:04;;;;;;;;;;;17.40;99.90;;;;;;5081320;28;19912;-67
2022/10/05 03:37:35;;;;;;;;;;;17.40;99.90;;;;;;5080229;28;19913;-66
2022/10/05 03:40:04;;;;;;;;;;;17.40;99.90;;;;;;5084267;28;19952;-65
2022/10/05 03:42:38;;;;;;;;;;;17.30;99.90;;;;;;5074432;28;19920;-66
2022/10/05 03:45:06;;;;;;;;;;;17.40;99.90;;;;;;5082394;28;19928;-66
2022/10/05 03:47:43;;;;;;;;;;;17.40;99.90;;;;;;5080116;28;19919;-66
2022/10/05 03:50:18;;;;;;;;;;;17.40;99.90;;;;;;5079912;28;20274;-66
2022/10/05 03:52:49;;;;;;;;;;;17.50;99.90;;;;;;5083661;28;19912;-67
2022/10/05 03:55:32;;;;;;;;;;;17.50;99.90;;;;;;5082204;28;19916;-66
2022/10/05 03:58:01;;;;;;;;;;;17.50;99.90;;;;;;5078954;28;19965;-66
2022/10/05 04:00:29;;;;;;;;;;;17.40;99.90;;;;;;5086169;28;19962;-65
2022/10/05 04:02:59;;;;;;;;;;;17.30;99.90;;;;;;5077628;28;19916;-66
2022/10/05 04:05:42;;;;;;;;;;;17.40;99.90;;;;;;5073613;28;19940;-65
2022/10/05 04:08:27;;;;;;;;;;;17.40;99.90;;;;;;5076896;28;19993;-67
2022/10/05 04:10:57;;;;;;;;;;;17.40;99.90;;;;;;5075745;28;19955;-67
2022/10/05 04:13:37;;;;;;;;;;;17.40;99.90;;;;;;5073350;28;19921;-66
2022/10/05 04:16:05;;;;;;;;;;;17.40;99.90;;;;;;5081994;28;19919;-67
2022/10/05 04:18:39;;;;;;;;;;;17.40;99.90;;;;;;5086530;28;20369;-66
2022/10/05 04:21:07;;;;;;;;;;;17.40;99.90;;;;;;5087873;28;20346;-66
2022/10/05 04:24:05;;;;;;;;;;;17.40;99.90;;;;;;5086389;28;19924;-66
2022/10/05 04:26:37;;;;;;;;;;;17.40;99.90;;;;;;5090009;28;19917;-66
2022/10/05 04:29:15;;;;;;;;;;;17.40;99.90;;;;;;5084797;28;19913;-65
2022/10/05 04:32:09;;;;;;;;;;;17.40;99.90;;;;;;5091007;28;20368;-66
2022/10/05 04:34:54;;;;;;;;;;;17.30;99.90;;;;;;5081621;28;20433;-66
2022/10/05 04:37:29;;;;;;;;;;;17.30;99.90;;;;;;5082939;28;19912;-66
2022/10/05 04:39:57;;;;;;;;;;;17.20;99.90;;;;;;5081242;28;19912;-66
2022/10/05 04:42:29;;;;;;;;;;;17.30;99.90;;;;;;5080898;28;19912;-67
2022/10/05 04:45:05;;;;;;;;;;;17.30;99.90;;;;;;5081389;28;19921;-66
2022/10/05 04:47:31;;;;;;;;;;;17.30;99.90;;;;;;5075443;28;20275;-66
2022/10/05 04:50:05;;;;;;;;;;;17.30;99.90;;;;;;5075417;28;20381;-66
2022/10/05 04:52:31;;;;;;;;;;;17.30;99.90;;;;;;5082352;28;19955;-65
2022/10/05 04:55:09;;;;;;;;;;;17.30;99.90;;;;;;5085236;28;19951;-66
2022/10/05 04:57:55;;;;;;;;;;;17.30;99.90;;;;;;5081361;28;19923;-65
2022/10/05 05:00:25;;;;;;;;;;;17.30;99.90;;;;;;5084220;28;20372;-66
2022/10/05 05:02:56;;;;;;;;;;;17.40;99.90;;;;;;5081846;28;19916;-65
2022/10/05 05:05:30;;;;;;;;;;;17.30;99.90;;;;;;5077570;28;20038;-65
2022/10/05 05:08:05;;;;;;;;;;;17.30;99.90;;;;;;5086536;28;19920;-64
2022/10/05 05:10:50;;;;;;;;;;;17.40;99.90;;;;;;5080090;28;19917;-64
2022/10/05 05:13:35;;;;;;;;;;;17.40;99.90;;;;;;5087145;28;21710;-65
2022/10/05 05:16:24;;;;;;;;;;;17.40;99.90;;;;;;5078749;28;20304;-66
2022/10/05 05:18:56;;;;;;;;;;;17.30;99.90;;;;;;5078250;28;19912;-66
2022/10/05 05:21:43;;;;;;;;;;;17.30;99.90;;;;;;5066231;28;20410;-67
2022/10/05 05:24:15;;;;;;;;;;;17.30;99.90;;;;;;5079185;28;19924;-66
2022/10/05 05:27:03;;;;;;;;;;;17.30;99.90;;;;;;5088121;28;19965;-67
2022/10/05 05:29:34;;;;;;;;;;;17.30;99.90;;;;;;5080052;28;19919;-66
2022/10/05 05:32:06;;;;;;;;;;;17.40;99.90;;;;;;5079947;28;19924;-67
2022/10/05 05:34:50;;;;;;;;;;;17.40;99.90;;;;;;5087014;28;19912;-67
2022/10/05 05:37:23;;;;;;;;;;;17.40;99.90;;;;;;5081039;28;19920;-67
2022/10/05 05:40:01;;;;;;;;;;;17.30;99.90;;;;;;5085790;28;19939;-67
2022/10/05 05:42:42;;;;;;;;;;;17.30;99.90;;;;;;5083501;28;19959;-67
2022/10/05 05:45:16;;;;;;;;;;;17.30;99.90;;;;;;5081135;28;19924;-67
2022/10/05 05:47:50;;;;;;;;;;;17.30;99.90;;;;;;5080011;28;20399;-67
2022/10/05 05:50:31;;;;;;;;;;;17.30;99.90;;;;;;5080915;28;19913;-66
2022/10/05 05:52:59;;;;;;;;;;;17.30;99.90;;;;;;5083075;28;20006;-66
2022/10/05 05:55:31;;;;;;;;;;;17.30;99.90;;;;;;5082732;28;19918;-67
2022/10/05 05:58:15;;;;;;;;;;;17.20;99.90;;;;;;5082137;28;22691;-67
2022/10/05 06:00:47;;;;;;;;;;;17.30;99.90;;;;;;5075663;28;19916;-67
2022/10/05 06:03:19;;;;;;;;;;;17.30;99.90;;;;;;5083977;28;19916;-67
2022/10/05 06:05:56;;;;;;;;;;;17.40;99.90;;;;;;5075968;28;19920;-67
2022/10/05 06:08:31;;;;;;;;;;;17.30;99.90;;;;;;5085886;28;19912;-67
2022/10/05 06:11:09;;;;;;;;;;;17.40;99.90;;;;;;5079625;28;20297;-67
2022/10/05 06:13:37;;;;;;;;;;;17.40;99.90;;;;;;5075892;28;20266;-67
2022/10/05 06:16:12;;;;;;;;;;;17.40;99.90;;;;;;5073076;28;20383;-67
2022/10/05 06:18:40;;;;;;;;;;;17.50;99.90;;;;;;5074793;28;20668;-66
2022/10/05 06:21:11;;;;;;;;;;;17.40;99.90;;;;;;5069041;28;19919;-67
2022/10/05 06:24:00;;;;;;;;;;;17.50;99.90;;;;;;5077610;28;20456;-68
2022/10/05 06:26:44;;;;;;;;;;;17.40;99.90;;;;;;5067095;28;19916;-68
2022/10/05 06:29:18;;;;;;;;;;;17.50;99.90;;;;;;5066529;28;20007;-67
2022/10/05 06:32:03;;;;;;;;;;;17.40;99.90;;;;;;5068230;28;20385;-68
2022/10/05 06:34:31;;;;;;;;;;;17.50;99.90;;;;;;5070747;28;19916;-67
2022/10/05 06:37:03;;;;;;;;;;;17.60;99.90;;;;;;5066774;28;19935;-68
2022/10/05 06:39:32;;;;;;;;;;;17.60;99.90;;;;;;5069512;28;19913;-67
2022/10/05 06:42:16;;;;;;;;;;;17.60;99.90;;;;;;5071176;28;20143;-68
2022/10/05 06:44:52;;;;;;;;;;;17.70;99.90;;;;;;5082142;28;19924;-67
2022/10/05 06:47:41;;;;;;;;;;;17.70;99.90;;;;;;5080870;28;20065;-69
2022/10/05 06:50:25;;;;;;;;;;;17.60;99.90;;;;;;5074035;28;19921;-66
2022/10/05 06:52:58;;;;;;;;;;;17.70;99.90;;;;;;5073486;28;19916;-67
2022/10/05 06:55:34;;;;;;;;;;;17.70;99.90;;;;;;5074300;28;19916;-67
2022/10/05 06:58:18;;;;;;;;;;;17.70;99.90;;;;;;5077078;28;19963;-68
2022/10/05 07:00:51;;;;;;;;;;;17.70;99.90;;;;;;5076423;28;19921;-65
2022/10/05 07:03:24;;;;;;;;;;;17.80;99.90;;;;;;5068049;28;20792;-68
2022/10/05 07:05:59;;;;;;;;;;;17.90;99.90;;;;;;5074073;28;20026;-68
2022/10/05 07:08:33;;;;;;;;;;;17.90;99.90;;;;;;5077240;28;19931;-67
2022/10/05 07:10:59;;;;;;;;;;;17.90;99.90;;;;;;5071020;28;19919;-69
2022/10/05 07:13:40;;;;;;;;;;;17.90;99.90;;;;;;5071661;28;19920;-67
2022/10/05 07:16:37;;;;;;;;;;;17.90;99.90;;;;;;5081993;28;19919;-68
2022/10/05 07:19:14;;;;;;;;;;;17.90;99.90;;;;;;5073635;28;19935;-68
2022/10/05 07:21:43;;;;;;;;;;;17.90;99.90;;;;;;5077094;28;20241;-68
2022/10/05 07:24:08;;;;;;;;;;;17.90;99.90;;;;;;5085101;28;19927;-69
2022/10/05 07:26:41;;;;;;;;;;;17.90;99.90;;;;;;5083709;28;20290;-69
2022/10/05 07:29:13;;;;;;;;;;;17.90;99.90;;;;;;5081794;28;19985;-69
2022/10/05 07:31:45;;;;;;;;;;;17.90;99.90;;;;;;5083674;28;19912;-69
2022/10/05 07:34:19;;;;;;;;;;;17.90;99.90;;;;;;5079667;28;19966;-68
2022/10/05 07:39:55;;;;;;;;;;;18.00;99.90;;;;;;5087213;28;19926;-69
2022/10/05 07:42:30;;;;;;;;;;;17.90;99.90;;;;;;5085318;28;19923;-67
2022/10/05 07:45:14;;;;;;;;;;;17.90;99.90;;;;;;5091098;28;20393;-67
2022/10/05 07:47:50;;;;;;;;;;;18.00;99.90;;;;;;5082342;28;20023;-69
2022/10/05 07:50:30;;;;;;;;;;;17.90;99.90;;;;;;5083469;28;19916;-68
2022/10/05 07:53:09;;;;;;;;;;;18.00;99.90;;;;;;5087651;28;19912;-69
2022/10/05 07:55:37;;;;;;;;;;;18.00;99.90;;;;;;5081339;28;20031;-70
2022/10/05 07:58:11;;;;;;;;;;;18.10;99.90;;;;;;5082539;28;20304;-68
2022/10/05 08:00:44;;;;;;;;;;;18.20;99.90;;;;;;5084227;28;19919;-70
2022/10/05 08:03:16;;;;;;;;;;;18.20;99.90;;;;;;5095043;28;20429;-69
2022/10/05 08:05:44;;;;;;;;;;;18.20;99.90;;;;;;5081453;28;20274;-68
2022/10/05 08:08:12;;;;;;;;;;;18.30;99.90;;;;;;5085265;28;20370;-68
2022/10/05 08:10:54;;;;;;;;;;;18.60;99.90;;;;;;5094419;28;20013;-68
2022/10/05 08:13:38;;;;;;;;;;;18.50;99.90;;;;;;5081539;28;19917;-68
2022/10/05 08:16:11;;;;;;;;;;;18.40;99.90;;;;;;5088505;28;21420;-67
2022/10/05 08:18:41;;;;;;;;;;;18.40;99.90;;;;;;5083764;28;20396;-69
2022/10/05 08:21:10;;;;;;;;;;;18.50;99.90;;;;;;5080092;28;19932;-68
2022/10/05 08:23:52;;;;;;;;;;;18.50;99.90;;;;;;5097818;28;19912;-67
2022/10/05 08:26:27;;;;;;;;;;;18.60;99.90;;;;;;5081041;28;19912;-68
2022/10/05 08:29:12;;;;;;;;;;;18.70;99.90;;;;;;5091477;28;19994;-66
2022/10/05 08:31:41;;;;;;;;;;;18.80;99.90;;;;;;5093101;28;19969;-68
2022/10/05 08:34:19;;;;;;;;;;;18.80;99.90;;;;;;5096517;28;19908;-69
2022/10/05 08:36:52;;;;;;;;;;;18.70;99.90;;;;;;5075732;28;19916;-68
2022/10/05 08:39:18;;;;;;;;;;;18.70;99.90;;;;;;5090470;28;20012;-67
2022/10/05 08:42:02;;;;;;;;;;;18.60;99.90;;;;;;5089178;28;19912;-68
2022/10/05 08:44:28;;;;;;;;;;;18.60;99.90;;;;;;5081986;28;20010;-66
2022/10/05 08:46:53;;;;;;;;;;;18.60;99.90;;;;;;5085984;28;20381;-66
2022/10/05 08:49:22;;;;;;;;;;;18.60;99.90;;;;;;5085997;28;19917;-69
2022/10/05 08:51:47;;;;;;;;;;;18.50;99.90;;;;;;5078529;28;19939;-68
2022/10/05 08:54:18;;;;;;;;;;;18.60;99.90;;;;;;5079220;28;20355;-67
2022/10/05 08:56:44;;;;;;;;;;;18.50;99.90;;;;;;5077115;28;20007;-66
2022/10/05 08:59:13;;;;;;;;;;;18.60;99.90;;;;;;5079658;28;20008;-68
2022/10/05 09:01:57;;;;;;;;;;;18.60;99.90;;;;;;5074462;28;19917;-65
2022/10/05 09:04:34;;;;;;;;;;;18.60;99.90;;;;;;5078273;28;19924;-66
2022/10/05 09:07:27;;;;;;;;;;;18.60;99.90;;;;;;5082931;28;20057;-65
2022/10/05 09:10:09;;;;;;;;;;;18.40;99.90;;;;;;5077783;28;19978;-68
2022/10/05 09:12:54;;;;;;;;;;;18.20;99.90;;;;;;5075621;28;19912;-67
2022/10/05 09:15:31;;;;;;;;;;;18.10;99.90;;;;;;5074160;28;20270;-67
2022/10/05 09:18:15;;;;;;;;;;;18.00;99.90;;;;;;5075450;28;19974;-67
2022/10/05 09:20:40;;;;;;;;;;;18.00;99.90;;;;;;5077358;28;19934;-66
2022/10/05 09:23:18;;;;;;;;;;;17.90;99.90;;;;;;5079998;28;19946;-66
2022/10/05 09:26:03;;;;;;;;;;;17.80;99.90;;;;;;5078163;28;19926;-67
2022/10/05 09:28:35;;;;;;;;;;;17.70;99.90;;;;;;5087407;28;20327;-67
2022/10/05 09:31:09;;;;;;;;;;;17.70;99.90;;;;;;5085056;28;19970;-65
2022/10/05 09:33:37;;;;;;;;;;;17.60;99.90;;;;;;5077428;28;19946;-66
2022/10/05 09:36:06;;;;;;;;;;;17.60;99.90;;;;;;5071028;28;19919;-66
2022/10/05 09:38:34;;;;;;;;;;;17.50;99.90;;;;;;5076660;28;19951;-66
2022/10/05 09:41:03;;;;;;;;;;;17.50;99.90;;;;;;5073483;28;19916;-65
2022/10/05 09:43:47;;;;;;;;;;;17.50;99.90;;;;;;5072957;28;19912;-64
2022/10/05 09:46:12;;;;;;;;;;;17.50;99.90;;;;;;5075256;28;19920;-65
2022/10/05 09:48:57;;;;;;;;;;;17.40;99.90;;;;;;5070128;28;19912;-65
2022/10/05 09:51:41;;;;;;;;;;;17.40;99.90;;;;;;5080674;28;19999;-65
2022/10/05 09:54:12;;;;;;;;;;;17.30;99.90;;;;;;5085985;28;19912;-65
2022/10/05 09:56:48;;;;;;;;;;;17.20;99.90;;;;;;5081302;28;19912;-64
2022/10/05 09:59:27;;;;;;;;;;;17.20;99.90;;;;;;5078866;28;20369;-64
2022/10/05 10:02:03;;;;;;;;;;;17.20;99.90;;;;;;5077459;28;19920;-65
2022/10/05 10:04:31;;;;;;;;;;;17.10;99.90;;;;;;5082342;28;20603;-65
2022/10/05 10:07:09;;;;;;;;;;;17.10;99.90;;;;;;5080116;28;20034;-65
2022/10/05 10:09:35;;;;;;;;;;;17.00;99.90;;;;;;5076939;28;19913;-64
2022/10/05 10:12:07;;;;;;;;;;;17.10;99.90;;;;;;5090757;28;19961;-66
2022/10/05 10:15:09;;;;;;;;;;;17.00;99.90;;;;;;5086911;28;20266;-65
2022/10/05 10:17:54;;;;;;;;;;;17.00;99.90;;;;;;5080567;28;19912;-66
2022/10/05 10:20:21;;;;;;;;;;;17.00;99.90;;;;;;5083869;28;19913;-65
2022/10/05 10:22:48;;;;;;;;;;;17.00;99.90;;;;;;5074632;28;19963;-65
2022/10/05 10:25:41;;;;;;;;;;;17.00;99.90;;;;;;5079122;28;20270;-65
2022/10/05 10:28:16;;;;;;;;;;;16.90;99.90;;;;;;5071074;28;20099;-65
2022/10/05 10:30:57;;;;;;;;;;;16.90;99.90;;;;;;5067491;28;19913;-66
2022/10/05 10:33:41;;;;;;;;;;;16.90;99.90;;;;;;5071916;28;20422;-65
2022/10/05 10:36:16;;;;;;;;;;;16.90;99.90;;;;;;5075606;28;20432;-66
2022/10/05 10:38:54;;;;;;;;;;;16.90;99.90;;;;;;5073290;28;20417;-65
2022/10/05 10:41:38;;;;;;;;;;;16.90;99.90;;;;;;5079884;28;19919;-65
2022/10/05 10:44:22;;;;;;;;;;;16.90;99.90;;;;;;5070992;28;20163;-65
2022/10/05 10:46:57;;;;;;;;;;;16.90;99.90;;;;;;5070785;28;19959;-65
2022/10/05 10:49:41;;;;;;;;;;;16.90;99.90;;;;;;5074911;28;19955;-65
2022/10/05 10:52:06;;;;;;;;;;;17.00;99.90;;;;;;5066456;28;19917;-65
2022/10/05 10:54:35;;;;;;;;;;;17.10;99.90;;;;;;5069574;28;20354;-66
2022/10/05 10:57:15;;;;;;;;;;;17.10;99.90;;;;;;5075540;28;20409;-65
2022/10/05 10:59:41;;;;;;;;;;;17.10;99.90;;;;;;5069980;28;19916;-65
2022/10/05 11:02:17;;;;;;;;;;;17.00;99.90;;;;;;5078039;28;20365;-66
2022/10/05 11:04:46;;;;;;;;;;;16.80;99.90;;;;;;5073446;28;19997;-65
2022/10/05 11:07:20;;;;;;;;;;;16.60;99.90;;;;;;5078988;28;20270;-64
2022/10/05 11:10:01;;;;;;;;;;;16.40;99.90;;;;;;5071886;28;19959;-65
2022/10/05 11:12:45;;;;;;;;;;;16.30;99.90;;;;;;5073677;28;19920;-66
2022/10/05 11:15:29;;;;;;;;;;;16.10;99.90;;;;;;5073699;28;20267;-66
2022/10/05 11:18:00;;;;;;;;;;;16.10;99.90;;;;;;5073448;28;19917;-65
2022/10/05 11:20:29;;;;;;;;;;;16.20;99.90;;;;;;5072631;28;20003;-65
2022/10/05 11:22:57;;;;;;;;;;;16.10;99.90;;;;;;5075576;28;19956;-65
2022/10/05 11:25:26;;;;;;;;;;;16.00;99.90;;;;;;5072151;28;19932;-66
2022/10/05 11:28:18;;;;;;;;;;;16.00;99.90;;;;;;5072298;28;19920;-65
2022/10/05 11:30:49;;;;;;;;;;;16.00;99.90;;;;;;5074446;28;19937;-66
2022/10/05 11:33:33;;;;;;;;;;;16.00;99.90;;;;;;5074800;28;20018;-66
2022/10/05 11:36:09;;;;;;;;;;;15.90;99.90;;;;;;5076179;28;20309;-65
2022/10/05 11:38:41;;;;;;;;;;;15.80;99.90;;;;;;5080337;28;20459;-66
2022/10/05 11:41:22;;;;;;;;;;;15.60;99.90;;;;;;5081262;28;19919;-64
2022/10/05 11:44:14;;;;;;;;;;;15.60;99.90;;;;;;5075436;28;21546;-67
2022/10/05 11:46:40;;;;;;;;;;;15.50;99.90;;;;;;5069789;28;19920;-65
2022/10/05 11:49:12;;;;;;;;;;;15.60;99.90;;;;;;5075518;28;20418;-65
2022/10/05 11:51:37;;;;;;;;;;;15.60;99.90;;;;;;5074296;28;20370;-65
2022/10/05 11:54:22;;;;;;;;;;;15.50;99.90;;;;;;5083313;28;19952;-65
2022/10/05 11:56:51;;;;;;;;;;;15.60;99.90;;;;;;5072645;28;19919;-65
2022/10/05 11:59:40;;;;;;;;;;;15.70;99.90;;;;;;5069036;28;19974;-65
2022/10/05 12:02:26;;;;;;;;;;;15.60;99.90;;;;;;5059682;28;19943;-65
2022/10/05 12:04:54;;;;;;;;;;;15.70;99.90;;;;;;5079234;28;20330;-65
2022/10/05 12:07:45;;;;;;;;;;;15.70;99.90;;;;;;5077971;28;19959;-66
2022/10/05 12:10:22;;;;;;;;;;;15.70;99.90;;;;;;5077987;28;19919;-65
2022/10/05 12:12:56;;;;;;;;;;;15.90;99.90;;;;;;5074416;28;20066;-65
2022/10/05 12:15:43;;;;;;;;;;;16.00;99.90;;;;;;5078390;28;19927;-64
2022/10/05 12:18:12;;;;;;;;;;;15.90;99.90;;;;;;5072593;28;20007;-67
2022/10/05 12:20:44;;;;;;;;;;;15.90;99.90;;;;;;5083033;28;19918;-66
2022/10/05 12:23:16;;;;;;;;;;;16.00;99.90;;;;;;5073869;28;20666;-66
2022/10/05 12:25:55;;;;;;;;;;;16.00;99.90;;;;;;5078831;28;19951;-66
2022/10/05 12:28:26;;;;;;;;;;;16.10;99.90;;;;;;5081763;28;19913;-65
2022/10/05 12:30:54;;;;;;;;;;;16.10;99.90;;;;;;5077429;28;20385;-66
2022/10/05 12:33:25;;;;;;;;;;;16.20;99.90;;;;;;5076999;28;19919;-66
2022/10/05 12:36:17;;;;;;;;;;;16.30;99.90;;;;;;5075950;28;19912;-65
2022/10/05 12:39:06;;;;;;;;;;;16.40;99.90;;;;;;5070512;28;19912;-66
2022/10/05 12:41:35;;;;;;;;;;;16.50;99.90;;;;;;5074159;28;19995;-65
2022/10/05 12:44:06;;;;;;;;;;;16.60;99.90;;;;;;5079696;28;20297;-66
2022/10/05 12:46:50;;;;;;;;;;;16.70;99.90;;;;;;5082572;28;20026;-65
2022/10/05 12:49:24;;;;;;;;;;;16.70;99.90;;;;;;5078147;28;19920;-66
2022/10/05 12:51:52;;;;;;;;;;;16.80;99.90;;;;;;5076560;28;19920;-66
2022/10/05 12:54:27;;;;;;;;;;;16.80;99.90;;;;;;5081937;28;19919;-66
2022/10/05 12:57:02;;;;;;;;;;;16.80;99.90;;;;;;5077716;28;19916;-66
2022/10/05 12:59:30;;;;;;;;;;;16.60;99.90;;;;;;5074783;28;19912;-66
2022/10/05 13:02:25;;;;;;;;;;;16.50;99.90;;;;;;5083388;28;19939;-64
2022/10/05 13:04:50;;;;;;;;;;;16.30;99.90;;;;;;5071730;28;20311;-66
2022/10/05 13:07:16;;;;;;;;;;;15.80;99.90;;;;;;5078802;28;19961;-65
2022/10/05 13:09:46;;;;;;;;;;;15.60;99.90;;;;;;5080388;28;19923;-67
2022/10/05 13:12:34;;;;;;;;;;;15.20;99.90;;;;;;5076304;28;19978;-65
2022/10/05 13:15:06;;;;;;;;;;;14.60;99.90;;;;;;5082559;28;20024;-66
2022/10/05 13:17:39;;;;;;;;;;;14.40;99.90;;;;;;5084061;28;19916;-66
2022/10/05 13:20:19;;;;;;;;;;;14.50;99.90;;;;;;5085821;28;19916;-65
2022/10/05 13:22:55;;;;;;;;;;;14.60;99.90;;;;;;5076251;28;19916;-66
2022/10/05 13:25:26;;;;;;;;;;;14.80;99.90;;;;;;5081673;28;19928;-66
2022/10/05 13:28:00;;;;;;;;;;;14.90;99.90;;;;;;5084545;28;19999;-66
2022/10/05 13:30:26;;;;;;;;;;;15.20;99.90;;;;;;5083986;28;19920;-67
2022/10/05 13:33:10;;;;;;;;;;;15.30;99.90;;;;;;5079091;28;19938;-66
2022/10/05 13:35:42;;;;;;;;;;;15.40;99.90;;;;;;5081665;28;19912;-65
2022/10/05 13:38:19;;;;;;;;;;;15.40;99.90;;;;;;5075317;28;20385;-64
2022/10/05 13:40:58;;;;;;;;;;;15.40;99.90;;;;;;5082752;28;19946;-66
2022/10/05 13:43:27;;;;;;;;;;;15.50;99.90;;;;;;5077862;28;19919;-65
2022/10/05 13:45:55;;;;;;;;;;;15.50;99.90;;;;;;5078024;28;19921;-64
2022/10/05 13:48:20;;;;;;;;;;;15.60;99.90;;;;;;5077355;28;19973;-64
2022/10/05 13:50:50;;;;;;;;;;;15.70;99.90;;;;;;5080975;28;19916;-65
2022/10/05 13:53:25;;;;;;;;;;;15.90;99.90;;;;;;5076134;28;20219;-66
2022/10/05 13:56:06;;;;;;;;;;;16.00;99.90;;;;;;5084632;28;19912;-65
2022/10/05 13:58:40;;;;;;;;;;;16.00;99.90;;;;;;5087325;28;20506;-66
2022/10/05 14:01:27;;;;;;;;;;;16.10;99.90;;;;;;5083018;28;20369;-65
2022/10/05 14:04:03;;;;;;;;;;;16.00;99.90;;;;;;5079296;28;19932;-66
2022/10/05 14:06:30;;;;;;;;;;;15.90;99.90;;;;;;5074900;28;20435;-66
2022/10/05 14:09:01;;;;;;;;;;;15.70;99.90;;;;;;5080003;28;20002;-66
2022/10/05 14:11:31;;;;;;;;;;;15.80;99.90;;;;;;5076905;28;19919;-66
2022/10/05 14:14:09;;;;;;;;;;;15.80;99.90;;;;;;5080729;28;19912;-67
2022/10/05 14:16:42;;;;;;;;;;;16.00;99.90;;;;;;5079398;28;19932;-66
2022/10/05 14:19:14;;;;;;;;;;;16.00;99.90;;;;;;5077726;28;19913;-66
2022/10/05 14:21:49;;;;;;;;;;;16.00;99.90;;;;;;5084167;28;19927;-66
2022/10/05 14:24:17;;;;;;;;;;;15.80;99.90;;;;;;5076045;28;19925;-66
2022/10/05 14:26:49;;;;;;;;;;;15.90;99.90;;;;;;5077216;28;19957;-66
2022/10/05 14:29:15;;;;;;;;;;;15.90;99.90;;;;;;5082946;28;20403;-66
2022/10/05 14:32:01;;;;;;;;;;;15.90;99.90;;;;;;5079906;28;19975;-67
2022/10/05 14:34:43;;;;;;;;;;;15.90;99.90;;;;;;5081093;28;19935;-66
2022/10/05 14:37:23;;;;;;;;;;;16.10;99.90;;;;;;5074948;28;19918;-66
2022/10/05 14:39:51;;;;;;;;;;;16.30;99.90;;;;;;5082085;28;19908;-67
2022/10/05 14:42:21;;;;;;;;;;;16.50;99.90;;;;;;5079078;28;19912;-67
2022/10/05 14:45:10;;;;;;;;;;;16.40;99.90;;;;;;5066398;28;19925;-68
2022/10/05 14:47:43;;;;;;;;;;;16.30;99.90;;;;;;5072436;28;19965;-67
2022/10/05 14:50:36;;;;;;;;;;;16.30;99.90;;;;;;5069364;28;19931;-67
2022/10/05 14:53:01;;;;;;;;;;;16.30;99.90;;;;;;5067844;28;19920;-67
2022/10/05 14:55:29;;;;;;;;;;;16.30;99.90;;;;;;5068926;28;19919;-67
2022/10/05 14:58:11;;;;;;;;;;;16.30;99.90;;;;;;5085803;28;19916;-67
2022/10/05 15:00:42;;;;;;;;;;;16.30;99.90;;;;;;5074373;28;19958;-67
2022/10/05 15:03:07;;;;;;;;;;;16.40;99.90;;;;;;5073380;28;19939;-67
2022/10/05 15:05:36;;;;;;;;;;;16.40;99.90;;;;;;5075751;28;20370;-69